sensor_id;sensor_type;location;lat;lon;timestamp;pressure;altitude;pressure_sealevel;temperature;humidity
10060;BME280;5069;49.306;8.636;2023-06-05T00:02:28;100545.72;;;19.96;35.81
10060;BME280;5069;49.306;8.636;2023-06-05T00:05:30;100549.91;;;19.88;36.38
10060;BME280;5069;49.306;8.636;2023-06-05T00:08:32;100539.94;;;19.77;37.05
10060;BME280;5069;49.306;8.636;2023-06-05T00:11:33;100536.09;;;19.68;37.09
10060;BME280;5069;49.306;8.636;2023-06-05T00:14:35;100533.50;;;19.67;37.34
10060;BME280;5069;49.306;8.636;2023-06-05T00:17:38;100545.94;;;19.68;37.02
10060;BME280;5069;49.306;8.636;2023-06-05T00:20:39;100543.16;;;19.69;37.55
10060;BME280;5069;49.306;8.636;2023-06-05T00:23:41;100534.38;;;19.67;37.29
10060;BME280;5069;49.306;8.636;2023-06-05T00:26:43;100540.13;;;19.61;37.42
10060;BME280;5069;49.306;8.636;2023-06-05T00:29:45;100541.97;;;19.73;36.74
10060;BME280;5069;49.306;8.636;2023-06-05T00:32:47;100538.00;;;19.66;37.31
10060;BME280;5069;49.306;8.636;2023-06-05T00:35:48;100539.72;;;19.67;37.43
10060;BME280;5069;49.306;8.636;2023-06-05T00:38:51;100532.63;;;19.54;37.51
10060;BME280;5069;49.306;8.636;2023-06-05T00:41:55;100538.22;;;19.63;37.40
10060;BME280;5069;49.306;8.636;2023-06-05T00:44:56;100541.66;;;19.53;38.30
10060;BME280;5069;49.306;8.636;2023-06-05T00:47:58;100538.44;;;19.48;38.10
10060;BME280;5069;49.306;8.636;2023-06-05T00:51:00;100540.91;;;19.36;38.64
10060;BME280;5069;49.306;8.636;2023-06-05T00:54:03;100537.16;;;19.26;38.68
10060;BME280;5069;49.306;8.636;2023-06-05T00:57:06;100537.91;;;19.28;37.43
10060;BME280;5069;49.306;8.636;2023-06-05T01:00:09;100544.44;;;19.24;38.81
10060;BME280;5069;49.306;8.636;2023-06-05T01:03:13;100541.53;;;19.27;38.24
10060;BME280;5069;49.306;8.636;2023-06-05T01:06:15;100539.31;;;19.34;37.93
10060;BME280;5069;49.306;8.636;2023-06-05T01:09:18;100532.16;;;19.34;38.28
10060;BME280;5069;49.306;8.636;2023-06-05T01:15:46;100541.53;;;19.27;38.65
10060;BME280;5069;49.306;8.636;2023-06-05T01:18:47;100539.63;;;19.29;38.15
10060;BME280;5069;49.306;8.636;2023-06-05T01:21:49;100541.34;;;19.30;38.10
10060;BME280;5069;49.306;8.636;2023-06-05T01:24:51;100539.22;;;19.35;37.29
10060;BME280;5069;49.306;8.636;2023-06-05T01:28:10;100549.50;;;19.42;37.07
10060;BME280;5069;49.306;8.636;2023-06-05T01:31:18;100555.00;;;19.53;36.74
10060;BME280;5069;49.306;8.636;2023-06-05T01:34:23;100546.78;;;19.56;37.06
10060;BME280;5069;49.306;8.636;2023-06-05T01:37:27;100550.66;;;19.37;39.10
10060;BME280;5069;49.306;8.636;2023-06-05T01:40:38;100549.53;;;18.88;40.40
10060;BME280;5069;49.306;8.636;2023-06-05T01:43:41;100552.28;;;18.31;42.73
10060;BME280;5069;49.306;8.636;2023-06-05T01:46:43;100551.63;;;18.28;42.36
10060;BME280;5069;49.306;8.636;2023-06-05T01:49:45;100552.47;;;18.00;44.57
10060;BME280;5069;49.306;8.636;2023-06-05T01:52:47;100552.63;;;17.68;45.60
10060;BME280;5069;49.306;8.636;2023-06-05T01:55:49;100561.66;;;17.66;45.22
10060;BME280;5069;49.306;8.636;2023-06-05T01:58:54;100548.44;;;17.34;47.49
10060;BME280;5069;49.306;8.636;2023-06-05T02:01:56;100557.13;;;17.22;48.27
10060;BME280;5069;49.306;8.636;2023-06-05T02:04:57;100559.53;;;17.27;47.24
10060;BME280;5069;49.306;8.636;2023-06-05T02:08:00;100545.47;;;17.09;47.94
10060;BME280;5069;49.306;8.636;2023-06-05T02:11:06;100544.91;;;16.88;49.00
10060;BME280;5069;49.306;8.636;2023-06-05T02:14:11;100552.47;;;16.80;49.42
10060;BME280;5069;49.306;8.636;2023-06-05T02:17:14;100554.66;;;16.74;49.77
10060;BME280;5069;49.306;8.636;2023-06-05T02:20:16;100554.19;;;16.66;50.16
10060;BME280;5069;49.306;8.636;2023-06-05T02:23:18;100563.66;;;16.71;50.33
10060;BME280;5069;49.306;8.636;2023-06-05T02:26:20;100559.09;;;16.73;49.79
10060;BME280;5069;49.306;8.636;2023-06-05T02:29:23;100551.72;;;16.78;49.42
10060;BME280;5069;49.306;8.636;2023-06-05T02:32:25;100550.19;;;16.74;50.09
10060;BME280;5069;49.306;8.636;2023-06-05T02:35:30;100556.84;;;16.81;49.17
10060;BME280;5069;49.306;8.636;2023-06-05T02:38:32;100547.06;;;16.82;48.35
10060;BME280;5069;49.306;8.636;2023-06-05T02:41:35;100563.03;;;16.66;49.88
10060;BME280;5069;49.306;8.636;2023-06-05T02:44:38;100562.84;;;16.69;49.76
10060;BME280;5069;49.306;8.636;2023-06-05T02:47:39;100563.66;;;16.71;49.60
10060;BME280;5069;49.306;8.636;2023-06-05T02:50:41;100568.03;;;16.72;50.08
10060;BME280;5069;49.306;8.636;2023-06-05T02:53:44;100557.72;;;16.66;49.30
10060;BME280;5069;49.306;8.636;2023-06-05T02:56:48;100566.84;;;16.62;49.83
10060;BME280;5069;49.306;8.636;2023-06-05T02:59:51;100567.13;;;16.56;50.20
10060;BME280;5069;49.306;8.636;2023-06-05T03:02:54;100567.34;;;16.36;50.70
10060;BME280;5069;49.306;8.636;2023-06-05T03:06:02;100563.41;;;16.27;50.88
10060;BME280;5069;49.306;8.636;2023-06-05T03:09:13;100564.69;;;16.20;51.36
10060;BME280;5069;49.306;8.636;2023-06-05T03:12:14;100571.38;;;16.11;52.18
10060;BME280;5069;49.306;8.636;2023-06-05T03:15:16;100571.84;;;16.02;52.50
10060;BME280;5069;49.306;8.636;2023-06-05T03:18:21;100574.69;;;15.99;51.75
10060;BME280;5069;49.306;8.636;2023-06-05T03:21:23;100568.75;;;15.94;52.42
10060;BME280;5069;49.306;8.636;2023-06-05T03:24:25;100576.06;;;15.89;52.83
10060;BME280;5069;49.306;8.636;2023-06-05T03:27:33;100567.28;;;15.72;53.14
10060;BME280;5069;49.306;8.636;2023-06-05T03:30:34;100565.63;;;15.69;53.33
10060;BME280;5069;49.306;8.636;2023-06-05T03:33:36;100570.72;;;15.74;53.18
10060;BME280;5069;49.306;8.636;2023-06-05T03:36:38;100572.66;;;15.87;53.31
10060;BME280;5069;49.306;8.636;2023-06-05T03:39:43;100578.13;;;15.84;52.00
10060;BME280;5069;49.306;8.636;2023-06-05T03:42:45;100573.63;;;15.69;53.81
10060;BME280;5069;49.306;8.636;2023-06-05T03:45:47;100581.28;;;15.58;54.66
10060;BME280;5069;49.306;8.636;2023-06-05T03:48:52;100584.88;;;15.57;54.85
10060;BME280;5069;49.306;8.636;2023-06-05T03:51:56;100576.75;;;15.60;53.78
10060;BME280;5069;49.306;8.636;2023-06-05T03:55:02;100579.00;;;15.67;54.16
10060;BME280;5069;49.306;8.636;2023-06-05T03:58:08;100591.41;;;15.67;53.97
10060;BME280;5069;49.306;8.636;2023-06-05T04:01:10;100585.47;;;15.79;53.36
10060;BME280;5069;49.306;8.636;2023-06-05T04:04:12;100580.78;;;15.84;53.49
10060;BME280;5069;49.306;8.636;2023-06-05T04:07:14;100580.78;;;15.84;53.84
10060;BME280;5069;49.306;8.636;2023-06-05T04:10:15;100587.28;;;15.79;54.12
10060;BME280;5069;49.306;8.636;2023-06-05T04:13:17;100583.75;;;15.78;54.25
10060;BME280;5069;49.306;8.636;2023-06-05T04:16:19;100583.44;;;15.84;54.01
10060;BME280;5069;49.306;8.636;2023-06-05T04:19:21;100587.97;;;15.99;54.41
10060;BME280;5069;49.306;8.636;2023-06-05T04:22:27;100589.97;;;16.11;53.75
10060;BME280;5069;49.306;8.636;2023-06-05T04:25:29;100593.06;;;16.20;54.37
10060;BME280;5069;49.306;8.636;2023-06-05T04:28:30;100583.31;;;16.20;54.19
10060;BME280;5069;49.306;8.636;2023-06-05T04:31:33;100590.59;;;16.17;54.56
10060;BME280;5069;49.306;8.636;2023-06-05T04:34:35;100590.41;;;16.20;54.95
10060;BME280;5069;49.306;8.636;2023-06-05T04:37:38;100589.22;;;16.25;55.02
10060;BME280;5069;49.306;8.636;2023-06-05T04:40:40;100587.03;;;16.33;55.15
10060;BME280;5069;49.306;8.636;2023-06-05T04:43:42;100587.38;;;16.43;54.91
10060;BME280;5069;49.306;8.636;2023-06-05T04:46:45;100588.31;;;16.42;54.29
10060;BME280;5069;49.306;8.636;2023-06-05T04:49:47;100592.81;;;16.57;54.38
10060;BME280;5069;49.306;8.636;2023-06-05T04:52:51;100595.31;;;16.60;53.07
10060;BME280;5069;49.306;8.636;2023-06-05T04:55:54;100585.19;;;16.67;52.29
10060;BME280;5069;49.306;8.636;2023-06-05T04:58:56;100594.31;;;16.78;53.82
10060;BME280;5069;49.306;8.636;2023-06-05T05:01:59;100588.47;;;16.87;54.55
10060;BME280;5069;49.306;8.636;2023-06-05T05:05:01;100583.72;;;16.92;54.28
10060;BME280;5069;49.306;8.636;2023-06-05T05:08:03;100590.69;;;16.95;55.04
10060;BME280;5069;49.306;8.636;2023-06-05T05:11:06;100587.59;;;16.71;56.88
10060;BME280;5069;49.306;8.636;2023-06-05T05:14:08;100589.66;;;16.66;55.96
10060;BME280;5069;49.306;8.636;2023-06-05T05:17:09;100587.78;;;16.84;53.70
10060;BME280;5069;49.306;8.636;2023-06-05T05:20:11;100590.09;;;16.90;52.48
10060;BME280;5069;49.306;8.636;2023-06-05T05:23:14;100587.25;;;16.93;49.87
10060;BME280;5069;49.306;8.636;2023-06-05T05:26:17;100589.03;;;16.92;49.41
10060;BME280;5069;49.306;8.636;2023-06-05T05:29:18;100595.84;;;16.82;49.16
10060;BME280;5069;49.306;8.636;2023-06-05T05:32:20;100599.63;;;16.94;48.59
10060;BME280;5069;49.306;8.636;2023-06-05T05:35:22;100597.22;;;16.89;49.41
10060;BME280;5069;49.306;8.636;2023-06-05T05:38:23;100595.47;;;17.04;49.15
10060;BME280;5069;49.306;8.636;2023-06-05T05:41:25;100601.69;;;17.05;49.07
10060;BME280;5069;49.306;8.636;2023-06-05T05:44:27;100598.16;;;17.04;50.45
10060;BME280;5069;49.306;8.636;2023-06-05T05:47:29;100602.97;;;17.13;50.54
10060;BME280;5069;49.306;8.636;2023-06-05T05:50:30;100595.38;;;17.37;48.51
10060;BME280;5069;49.306;8.636;2023-06-05T05:53:32;100599.59;;;17.55;47.96
10060;BME280;5069;49.306;8.636;2023-06-05T05:56:33;100603.91;;;17.58;48.28
10060;BME280;5069;49.306;8.636;2023-06-05T05:59:37;100597.28;;;17.49;47.23
10060;BME280;5069;49.306;8.636;2023-06-05T06:02:39;100595.97;;;17.42;47.76
10060;BME280;5069;49.306;8.636;2023-06-05T06:05:40;100605.56;;;17.45;47.17
10060;BME280;5069;49.306;8.636;2023-06-05T06:08:42;100608.34;;;17.73;46.88
10060;BME280;5069;49.306;8.636;2023-06-05T06:11:43;100601.88;;;17.77;45.88
10060;BME280;5069;49.306;8.636;2023-06-05T06:14:45;100608.91;;;17.78;45.62
10060;BME280;5069;49.306;8.636;2023-06-05T06:17:48;100607.53;;;17.87;45.63
10060;BME280;5069;49.306;8.636;2023-06-05T06:20:49;100605.66;;;18.03;45.54
10060;BME280;5069;49.306;8.636;2023-06-05T06:23:51;100607.28;;;18.05;45.27
10060;BME280;5069;49.306;8.636;2023-06-05T06:26:52;100601.16;;;18.17;44.85
10060;BME280;5069;49.306;8.636;2023-06-05T06:29:53;100599.56;;;18.29;43.69
10060;BME280;5069;49.306;8.636;2023-06-05T06:32:56;100602.97;;;18.45;43.78
10060;BME280;5069;49.306;8.636;2023-06-05T06:36:01;100605.88;;;18.56;43.28
10060;BME280;5069;49.306;8.636;2023-06-05T06:39:02;100607.84;;;18.53;43.14
10060;BME280;5069;49.306;8.636;2023-06-05T06:42:05;100610.50;;;18.53;43.10
10060;BME280;5069;49.306;8.636;2023-06-05T06:45:08;100615.41;;;18.61;42.82
10060;BME280;5069;49.306;8.636;2023-06-05T06:48:10;100597.44;;;18.77;42.66
10060;BME280;5069;49.306;8.636;2023-06-05T06:51:11;100605.53;;;18.89;42.47
10060;BME280;5069;49.306;8.636;2023-06-05T06:54:13;100608.28;;;19.02;41.92
10060;BME280;5069;49.306;8.636;2023-06-05T06:57:15;100608.22;;;19.16;41.69
10060;BME280;5069;49.306;8.636;2023-06-05T07:00:16;100605.59;;;19.56;43.76
10060;BME280;5069;49.306;8.636;2023-06-05T07:03:18;100612.16;;;19.77;40.72
10060;BME280;5069;49.306;8.636;2023-06-05T07:06:19;100606.06;;;19.75;41.06
10060;BME280;5069;49.306;8.636;2023-06-05T07:09:23;100607.66;;;19.77;40.09
10060;BME280;5069;49.306;8.636;2023-06-05T07:12:24;100610.16;;;19.80;39.95
10060;BME280;5069;49.306;8.636;2023-06-05T07:15:26;100605.22;;;20.00;40.31
10060;BME280;5069;49.306;8.636;2023-06-05T07:18:28;100598.59;;;20.05;39.68
10060;BME280;5069;49.306;8.636;2023-06-05T07:21:29;100597.75;;;20.17;39.75
10060;BME280;5069;49.306;8.636;2023-06-05T07:24:32;100604.16;;;20.28;39.37
10060;BME280;5069;49.306;8.636;2023-06-05T07:27:33;100598.19;;;20.49;39.71
10060;BME280;5069;49.306;8.636;2023-06-05T07:30:35;100598.81;;;20.40;39.30
10060;BME280;5069;49.306;8.636;2023-06-05T07:33:37;100603.31;;;20.40;40.16
10060;BME280;5069;49.306;8.636;2023-06-05T07:36:38;100600.44;;;20.55;40.01
10060;BME280;5069;49.306;8.636;2023-06-05T07:39:40;100595.94;;;20.92;39.49
10060;BME280;5069;49.306;8.636;2023-06-05T07:42:41;100596.94;;;21.15;39.13
10060;BME280;5069;49.306;8.636;2023-06-05T07:45:43;100587.28;;;21.13;38.56
10060;BME280;5069;49.306;8.636;2023-06-05T07:48:45;100592.44;;;21.03;39.34
10060;BME280;5069;49.306;8.636;2023-06-05T07:51:46;100592.66;;;21.13;39.26
10060;BME280;5069;49.306;8.636;2023-06-05T07:54:50;100592.53;;;21.38;39.47
10060;BME280;5069;49.306;8.636;2023-06-05T07:57:52;100590.50;;;21.41;38.85
10060;BME280;5069;49.306;8.636;2023-06-05T08:00:54;100584.25;;;21.30;39.54
10060;BME280;5069;49.306;8.636;2023-06-05T08:03:56;100591.69;;;21.37;39.39
10060;BME280;5069;49.306;8.636;2023-06-05T08:06:58;100586.53;;;21.58;39.63
10060;BME280;5069;49.306;8.636;2023-06-05T08:09:59;100593.88;;;21.67;38.75
10060;BME280;5069;49.306;8.636;2023-06-05T08:13:01;100575.91;;;21.92;39.55
10060;BME280;5069;49.306;8.636;2023-06-05T08:16:03;100579.88;;;22.10;38.90
10060;BME280;5069;49.306;8.636;2023-06-05T08:19:05;100577.03;;;22.11;38.81
10060;BME280;5069;49.306;8.636;2023-06-05T08:22:07;100575.47;;;22.31;38.89
10060;BME280;5069;49.306;8.636;2023-06-05T08:25:09;100575.97;;;22.36;39.95
10060;BME280;5069;49.306;8.636;2023-06-05T08:28:10;100571.31;;;22.60;39.42
10060;BME280;5069;49.306;8.636;2023-06-05T08:31:11;100568.25;;;22.76;39.18
10060;BME280;5069;49.306;8.636;2023-06-05T08:34:13;100570.94;;;22.76;38.23
10060;BME280;5069;49.306;8.636;2023-06-05T08:37:15;100573.13;;;22.71;39.03
10060;BME280;5069;49.306;8.636;2023-06-05T08:40:18;100573.72;;;22.86;37.86
10060;BME280;5069;49.306;8.636;2023-06-05T08:43:20;100562.88;;;22.76;38.20
10060;BME280;5069;49.306;8.636;2023-06-05T08:46:22;100569.09;;;22.65;38.00
10060;BME280;5069;49.306;8.636;2023-06-05T08:49:26;100573.16;;;22.60;38.11
10060;BME280;5069;49.306;8.636;2023-06-05T08:52:33;100562.50;;;22.70;38.34
10060;BME280;5069;49.306;8.636;2023-06-05T08:55:35;100563.25;;;22.83;38.60
10060;BME280;5069;49.306;8.636;2023-06-05T08:58:37;100565.94;;;22.83;38.22
10060;BME280;5069;49.306;8.636;2023-06-05T09:01:39;100561.34;;;23.05;38.42
10060;BME280;5069;49.306;8.636;2023-06-05T09:04:40;100554.75;;;23.30;40.25
10060;BME280;5069;49.306;8.636;2023-06-05T09:07:42;100545.13;;;23.80;40.02
10060;BME280;5069;49.306;8.636;2023-06-05T09:10:43;100546.66;;;24.04;38.92
10060;BME280;5069;49.306;8.636;2023-06-05T09:13:45;100545.91;;;24.43;39.63
10060;BME280;5069;49.306;8.636;2023-06-05T09:16:47;100536.97;;;24.52;38.89
10060;BME280;5069;49.306;8.636;2023-06-05T09:19:49;100542.06;;;24.46;39.05
10060;BME280;5069;49.306;8.636;2023-06-05T09:22:51;100538.63;;;24.44;39.46
10060;BME280;5069;49.306;8.636;2023-06-05T09:25:54;100534.97;;;24.45;38.49
10060;BME280;5069;49.306;8.636;2023-06-05T09:28:57;100536.19;;;24.71;38.03
10060;BME280;5069;49.306;8.636;2023-06-05T09:32:02;100530.88;;;25.00;38.74
10060;BME280;5069;49.306;8.636;2023-06-05T09:35:04;100531.47;;;25.23;38.45
10060;BME280;5069;49.306;8.636;2023-06-05T09:38:40;100533.72;;;25.37;38.01
10060;BME280;5069;49.306;8.636;2023-06-05T09:41:42;100534.84;;;25.44;38.06
10060;BME280;5069;49.306;8.636;2023-06-05T09:44:57;100536.00;;;25.61;38.22
10060;BME280;5069;49.306;8.636;2023-06-05T09:48:13;100527.75;;;25.72;37.65
10060;BME280;5069;49.306;8.636;2023-06-05T09:51:16;100524.03;;;25.63;37.95
10060;BME280;5069;49.306;8.636;2023-06-05T09:54:20;100527.19;;;25.59;38.67
10060;BME280;5069;49.306;8.636;2023-06-05T09:57:24;100524.91;;;25.73;37.59
10060;BME280;5069;49.306;8.636;2023-06-05T10:00:26;100525.00;;;25.81;37.90
10060;BME280;5069;49.306;8.636;2023-06-05T10:03:28;100524.00;;;25.82;37.82
10060;BME280;5069;49.306;8.636;2023-06-05T10:06:32;100517.53;;;25.27;37.98
10060;BME280;5069;49.306;8.636;2023-06-05T10:09:33;100517.66;;;25.35;39.39
10060;BME280;5069;49.306;8.636;2023-06-05T10:12:37;100517.44;;;25.95;38.05
10060;BME280;5069;49.306;8.636;2023-06-05T10:15:40;100507.78;;;25.92;36.67
10060;BME280;5069;49.306;8.636;2023-06-05T10:18:46;100508.84;;;26.09;36.17
10060;BME280;5069;49.306;8.636;2023-06-05T10:21:49;100505.78;;;26.41;35.67
10060;BME280;5069;49.306;8.636;2023-06-05T10:24:57;100509.78;;;26.82;34.38
10060;BME280;5069;49.306;8.636;2023-06-05T10:28:29;100497.03;;;26.74;33.35
10060;BME280;5069;49.306;8.636;2023-06-05T10:31:48;100489.16;;;26.81;34.29
10060;BME280;5069;49.306;8.636;2023-06-05T10:38:25;100491.06;;;26.53;34.18
10060;BME280;5069;49.306;8.636;2023-06-05T10:41:27;100497.94;;;26.38;35.33
10060;BME280;5069;49.306;8.636;2023-06-05T10:44:41;100493.81;;;26.61;35.20
10060;BME280;5069;49.306;8.636;2023-06-05T10:47:50;100492.47;;;26.74;32.50
10060;BME280;5069;49.306;8.636;2023-06-05T10:50:52;100493.38;;;26.93;32.54
10060;BME280;5069;49.306;8.636;2023-06-05T10:57:25;100489.56;;;27.82;30.15
10060;BME280;5069;49.306;8.636;2023-06-05T11:00:27;100478.66;;;28.00;30.08
10060;BME280;5069;49.306;8.636;2023-06-05T11:04:00;100481.38;;;28.08;29.86
10060;BME280;5069;49.306;8.636;2023-06-05T11:07:27;100477.31;;;28.04;29.78
10060;BME280;5069;49.306;8.636;2023-06-05T11:10:29;100480.38;;;28.35;29.37
10060;BME280;5069;49.306;8.636;2023-06-05T11:13:56;100487.22;;;27.87;29.51
10060;BME280;5069;49.306;8.636;2023-06-05T11:16:57;100492.56;;;27.18;29.52
10060;BME280;5069;49.306;8.636;2023-06-05T11:20:00;100492.09;;;26.69;30.25
10060;BME280;5069;49.306;8.636;2023-06-05T11:26:39;100478.84;;;26.94;30.25
10060;BME280;5069;49.306;8.636;2023-06-05T11:29:42;100473.59;;;27.10;29.56
10060;BME280;5069;49.306;8.636;2023-06-05T11:32:45;100470.41;;;26.97;29.35
10060;BME280;5069;49.306;8.636;2023-06-05T11:35:48;100464.06;;;27.06;29.09
10060;BME280;5069;49.306;8.636;2023-06-05T11:38:54;100459.50;;;26.89;28.97
10060;BME280;5069;49.306;8.636;2023-06-05T11:41:58;100456.03;;;27.14;28.68
10060;BME280;5069;49.306;8.636;2023-06-05T11:45:00;100448.97;;;27.21;29.63
10060;BME280;5069;49.306;8.636;2023-06-05T11:48:06;100443.69;;;27.55;28.34
10060;BME280;5069;49.306;8.636;2023-06-05T11:51:07;100447.75;;;27.85;27.78
10060;BME280;5069;49.306;8.636;2023-06-05T11:54:09;100452.19;;;27.94;27.88
10060;BME280;5069;49.306;8.636;2023-06-05T11:57:16;100438.44;;;28.13;27.05
10060;BME280;5069;49.306;8.636;2023-06-05T12:00:23;100447.59;;;28.20;27.56
10060;BME280;5069;49.306;8.636;2023-06-05T12:03:25;100443.03;;;28.21;27.33
10060;BME280;5069;49.306;8.636;2023-06-05T12:06:29;100439.91;;;28.42;27.33
10060;BME280;5069;49.306;8.636;2023-06-05T12:09:31;100435.47;;;28.49;27.68
10060;BME280;5069;49.306;8.636;2023-06-05T12:12:33;100436.53;;;28.56;27.33
10060;BME280;5069;49.306;8.636;2023-06-05T12:15:35;100433.56;;;28.75;27.20
10060;BME280;5069;49.306;8.636;2023-06-05T12:18:36;100435.25;;;28.84;27.41
10060;BME280;5069;49.306;8.636;2023-06-05T12:21:38;100437.31;;;28.98;26.88
10060;BME280;5069;49.306;8.636;2023-06-05T12:24:39;100438.91;;;28.67;27.19
10060;BME280;5069;49.306;8.636;2023-06-05T12:27:41;100435.59;;;28.97;25.89
10060;BME280;5069;49.306;8.636;2023-06-05T12:30:43;100426.94;;;28.94;26.00
10060;BME280;5069;49.306;8.636;2023-06-05T12:33:48;100427.97;;;28.85;25.28
10060;BME280;5069;49.306;8.636;2023-06-05T12:36:50;100424.41;;;28.84;25.47
10060;BME280;5069;49.306;8.636;2023-06-05T12:39:52;100414.66;;;28.65;25.33
10060;BME280;5069;49.306;8.636;2023-06-05T12:42:54;100419.53;;;28.38;26.19
10060;BME280;5069;49.306;8.636;2023-06-05T12:45:56;100413.22;;;28.87;26.04
10060;BME280;5069;49.306;8.636;2023-06-05T12:49:02;100413.03;;;29.29;25.48
10060;BME280;5069;49.306;8.636;2023-06-05T12:52:06;100403.88;;;28.90;26.11
10060;BME280;5069;49.306;8.636;2023-06-05T12:55:08;100408.81;;;29.10;26.40
10060;BME280;5069;49.306;8.636;2023-06-05T12:58:10;100401.50;;;29.35;26.21
10060;BME280;5069;49.306;8.636;2023-06-05T13:01:12;100397.59;;;29.13;25.86
10060;BME280;5069;49.306;8.636;2023-06-05T13:04:15;100401.00;;;29.15;25.41
10060;BME280;5069;49.306;8.636;2023-06-05T13:07:16;100387.41;;;29.24;25.50
10060;BME280;5069;49.306;8.636;2023-06-05T13:10:18;100392.19;;;28.81;25.79
10060;BME280;5069;49.306;8.636;2023-06-05T13:13:19;100394.53;;;28.84;25.55
10060;BME280;5069;49.306;8.636;2023-06-05T13:16:21;100385.22;;;29.03;24.47
10060;BME280;5069;49.306;8.636;2023-06-05T13:19:23;100383.69;;;29.08;24.79
10060;BME280;5069;49.306;8.636;2023-06-05T13:22:25;100385.00;;;29.45;24.62
10060;BME280;5069;49.306;8.636;2023-06-05T13:25:26;100380.63;;;29.20;24.58
10060;BME280;5069;49.306;8.636;2023-06-05T13:28:29;100376.53;;;29.40;25.09
10060;BME280;5069;49.306;8.636;2023-06-05T13:31:31;100368.38;;;29.48;24.65
10060;BME280;5069;49.306;8.636;2023-06-05T13:34:33;100367.53;;;29.39;24.91
10060;BME280;5069;49.306;8.636;2023-06-05T13:37:39;100374.16;;;29.53;24.57
10060;BME280;5069;49.306;8.636;2023-06-05T13:40:41;100364.31;;;28.71;24.59
10060;BME280;5069;49.306;8.636;2023-06-05T13:43:44;100366.88;;;28.56;25.20
10060;BME280;5069;49.306;8.636;2023-06-05T13:46:45;100356.53;;;28.68;25.10
10060;BME280;5069;49.306;8.636;2023-06-05T13:49:47;100350.34;;;28.25;25.28
10060;BME280;5069;49.306;8.636;2023-06-05T13:52:49;100358.88;;;28.39;24.94
10060;BME280;5069;49.306;8.636;2023-06-05T13:55:50;100355.88;;;28.82;24.46
10060;BME280;5069;49.306;8.636;2023-06-05T13:58:51;100353.47;;;29.20;23.90
10060;BME280;5069;49.306;8.636;2023-06-05T14:01:53;100349.06;;;29.35;23.27
10060;BME280;5069;49.306;8.636;2023-06-05T14:04:55;100337.03;;;29.21;23.24
10060;BME280;5069;49.306;8.636;2023-06-05T14:07:56;100344.56;;;29.66;22.58
10060;BME280;5069;49.306;8.636;2023-06-05T14:10:59;100330.84;;;29.51;23.32
10060;BME280;5069;49.306;8.636;2023-06-05T14:14:00;100341.53;;;29.61;23.32
10060;BME280;5069;49.306;8.636;2023-06-05T14:17:03;100333.25;;;29.85;22.19
10060;BME280;5069;49.306;8.636;2023-06-05T14:20:05;100335.66;;;29.80;22.30
10060;BME280;5069;49.306;8.636;2023-06-05T14:23:07;100341.78;;;29.82;22.67
10060;BME280;5069;49.306;8.636;2023-06-05T14:26:08;100336.50;;;29.26;22.39
10060;BME280;5069;49.306;8.636;2023-06-05T14:29:10;100338.56;;;28.59;23.12
10060;BME280;5069;49.306;8.636;2023-06-05T14:32:12;100327.88;;;28.65;23.03
10060;BME280;5069;49.306;8.636;2023-06-05T14:35:13;100341.09;;;29.25;23.26
10060;BME280;5069;49.306;8.636;2023-06-05T14:38:15;100333.44;;;29.92;22.25
10060;BME280;5069;49.306;8.636;2023-06-05T14:41:17;100329.69;;;30.24;21.60
10060;BME280;5069;49.306;8.636;2023-06-05T14:44:18;100333.50;;;30.37;21.41
10060;BME280;5069;49.306;8.636;2023-06-05T14:47:24;100324.78;;;30.50;20.96
10060;BME280;5069;49.306;8.636;2023-06-05T14:50:25;100334.84;;;30.64;20.46
10060;BME280;5069;49.306;8.636;2023-06-05T14:53:27;100315.50;;;30.59;20.48
10060;BME280;5069;49.306;8.636;2023-06-05T14:56:29;100319.84;;;30.46;20.71
10060;BME280;5069;49.306;8.636;2023-06-05T14:59:30;100319.16;;;30.52;21.21
10060;BME280;5069;49.306;8.636;2023-06-05T15:02:32;100320.44;;;30.33;21.37
10060;BME280;5069;49.306;8.636;2023-06-05T15:05:34;100310.88;;;29.83;21.92
10060;BME280;5069;49.306;8.636;2023-06-05T15:08:36;100311.19;;;29.88;21.74
10060;BME280;5069;49.306;8.636;2023-06-05T15:11:37;100311.50;;;30.24;21.87
10060;BME280;5069;49.306;8.636;2023-06-05T15:14:39;100308.59;;;30.26;21.25
10060;BME280;5069;49.306;8.636;2023-06-05T15:17:40;100301.84;;;30.67;21.46
10060;BME280;5069;49.306;8.636;2023-06-05T15:20:42;100296.53;;;30.89;20.38
10060;BME280;5069;49.306;8.636;2023-06-05T15:23:43;100305.72;;;30.73;20.71
10060;BME280;5069;49.306;8.636;2023-06-05T15:26:45;100301.00;;;30.67;21.24
10060;BME280;5069;49.306;8.636;2023-06-05T15:29:47;100306.97;;;31.00;20.91
10060;BME280;5069;49.306;8.636;2023-06-05T15:32:49;100300.38;;;30.79;20.64
10060;BME280;5069;49.306;8.636;2023-06-05T15:35:50;100298.00;;;30.76;20.42
10060;BME280;5069;49.306;8.636;2023-06-05T15:38:52;100305.44;;;30.14;21.13
10060;BME280;5069;49.306;8.636;2023-06-05T15:41:53;100295.22;;;29.85;21.04
10060;BME280;5069;49.306;8.636;2023-06-05T15:45:08;100297.56;;;29.96;21.34
10060;BME280;5069;49.306;8.636;2023-06-05T15:48:10;100296.75;;;29.88;20.84
10060;BME280;5069;49.306;8.636;2023-06-05T15:51:12;100302.84;;;29.90;21.42
10060;BME280;5069;49.306;8.636;2023-06-05T15:54:14;100287.53;;;30.51;20.38
10060;BME280;5069;49.306;8.636;2023-06-05T15:57:21;100283.81;;;30.66;20.85
10060;BME280;5069;49.306;8.636;2023-06-05T16:00:23;100288.56;;;30.50;20.38
10060;BME280;5069;49.306;8.636;2023-06-05T16:03:28;100278.84;;;30.93;20.55
10060;BME280;5069;49.306;8.636;2023-06-05T16:06:29;100266.59;;;30.89;19.97
10060;BME280;5069;49.306;8.636;2023-06-05T16:09:31;100269.06;;;30.38;20.47
10060;BME280;5069;49.306;8.636;2023-06-05T16:12:33;100262.97;;;30.59;20.85
10060;BME280;5069;49.306;8.636;2023-06-05T16:15:35;100267.50;;;30.66;20.34
10060;BME280;5069;49.306;8.636;2023-06-05T16:18:36;100264.59;;;30.45;20.31
10060;BME280;5069;49.306;8.636;2023-06-05T16:21:38;100259.84;;;30.85;20.34
10060;BME280;5069;49.306;8.636;2023-06-05T16:24:40;100258.44;;;30.74;20.35